Portada
METAR-TAF:

METAR-TAF

Aeroports :

Iakutsk, Rússia

latitud: 62-01N, longitud: 129-43E, altitud: 103 m

Observació

L'informe es va fer fa 27 minuts, a les 23:30 UTC
Vent calma
Temperatura -39°C
Humitat 65%
Pressió 1019 hPa
Visibilitat: 0400 m
boira

METAR: UEEE 102330Z 00000MPS 0450 0400NE R23L/1000N FG VV004 M39/M43 Q1019 R23L/450150 NOSIG RMK QBB120 QFE755

Hora: 08:57 (23:57 UTC)

Pronòstic

L'informe es va fer fa 57 minuts, a les 23:00 UTC
Pronòstic vàlid del 11 a les 00 UTC al 12 a les 06 UTC
Vent 2 kt amb direcció variable
Visibilitat: 0800 m
a una alçada de 400 ft
boira
Temporalment
l' 11 a les 00 UTC al 11 a les 12 UTC
Visibilitat: 0300 m
a una alçada de 200 ft
boira

TAF: UEEE 102300Z 1100/1206 VRB01MPS 0800 FG VV004 TEMPO 1100/1112 0300 FG VV002

Observacions i pronòstics meteorològics de més de 4000 aeroports (METAR i TAF).

Les estacions disponibles són els punts grocs i vermells al mapa.

Posi el ratolí al punt desitjat per veure el nom de l'estació.

Feu clic per veure les observacions i els pronòstics meteorològics.

Per canviar el mapa: feu clic els botons verds amb una creu de color negre per apropar; al botó verd amb un guió per allunyar la imatge; o en les fletxes verdes per a mapes adjacents.


METAR-TAF: